createdAt,value
2018-11-01T00:01:35.058Z,7.73
2018-11-01T00:06:18.866Z,6.20
2018-11-01T00:11:03.429Z,7.97
2018-11-01T00:15:47.429Z,6.37
2018-11-01T00:20:31.122Z,9.50
2018-11-01T00:25:15.242Z,8.80
2018-11-01T00:29:58.996Z,8.10
2018-11-01T00:34:42.898Z,11.40
2018-11-01T00:39:26.662Z,10.10
2018-11-01T00:44:10.429Z,9.13
2018-11-01T00:48:55.789Z,6.27
2018-11-01T00:53:40.194Z,6.13
2018-11-01T00:58:23.920Z,7.33
2018-11-01T01:03:07.739Z,8.93
2018-11-01T01:07:51.514Z,10.40
2018-11-01T01:12:35.554Z,8.17
2018-11-01T01:17:19.311Z,5.10
2018-11-01T01:22:03.372Z,7.37
2018-11-01T01:26:47.385Z,7.80
2018-11-01T01:31:31.092Z,8.90
2018-11-01T01:36:15.080Z,8.10
2018-11-01T01:40:59.682Z,9.40
2018-11-01T01:45:43.622Z,7.63
2018-11-01T01:50:27.451Z,6.80
2018-11-01T01:55:11.390Z,6.60
2018-11-01T01:59:55.214Z,5.50
2018-11-01T02:04:38.918Z,5.33
2018-11-01T02:09:22.648Z,7.67
2018-11-01T02:14:06.875Z,5.10
2018-11-01T02:18:50.833Z,5.57
2018-11-01T02:23:34.676Z,7.47
2018-11-01T02:28:19.168Z,5.13
2018-11-01T02:33:02.966Z,4.37
2018-11-01T02:37:47.845Z,5.30
2018-11-01T02:42:31.912Z,7.33
2018-11-01T02:47:15.668Z,10.30
2018-11-01T02:51:59.389Z,6.33
2018-11-01T02:56:43.186Z,5.30
2018-11-01T03:01:27.238Z,7.53
2018-11-01T03:06:10.908Z,6.50
2018-11-01T03:10:54.792Z,4.67
2018-11-01T03:15:38.526Z,7.87
2018-11-01T03:20:22.584Z,7.90
2018-11-01T03:25:07.070Z,6.77
2018-11-01T03:29:51.026Z,14.40
2018-11-01T03:34:34.738Z,10.27
2018-11-01T03:39:18.564Z,11.00
2018-11-01T03:44:02.487Z,10.63
2018-11-01T03:48:46.334Z,5.97
2018-11-01T03:53:30.166Z,6.23
2018-11-01T03:58:14.192Z,9.33
2018-11-01T04:02:59.166Z,6.73
2018-11-01T04:07:42.983Z,9.90
2018-11-01T04:12:26.765Z,7.77
2018-11-01T04:17:10.591Z,7.37
2018-11-01T04:21:59.812Z,7.23
2018-11-01T04:26:43.581Z,9.03
2018-11-01T04:31:27.283Z,13.97
2018-11-01T04:36:11.101Z,9.90
2018-11-01T04:40:54.905Z,8.87
2018-11-01T04:45:38.604Z,6.13
2018-11-01T04:50:22.570Z,7.80
2018-11-01T04:55:06.784Z,10.67
2018-11-01T04:59:50.545Z,9.23
2018-11-01T05:04:34.301Z,13.77
2018-11-01T05:09:18.047Z,13.97
2018-11-01T05:14:01.735Z,11.33
2018-11-01T05:18:45.935Z,15.40
2018-11-01T05:23:29.644Z,9.40
2018-11-01T05:28:13.354Z,10.80
2018-11-01T05:32:57.205Z,8.73
2018-11-01T05:37:41.168Z,8.93
2018-11-01T05:42:26.176Z,9.57
2018-11-01T05:47:09.870Z,8.90
2018-11-01T05:51:53.660Z,11.40
2018-11-01T05:56:37.723Z,14.53
2018-11-01T06:01:26.600Z,9.70
2018-11-01T06:06:10.363Z,10.47
2018-11-01T06:10:54.127Z,11.20
2018-11-01T06:15:37.873Z,9.17
2018-11-01T06:20:21.620Z,12.47
2018-11-01T06:25:06.089Z,10.77
2018-11-01T06:29:50.072Z,9.83
2018-11-01T06:34:39.207Z,12.80
2018-11-01T06:39:22.896Z,11.57
2018-11-01T06:44:06.538Z,10.27
2018-11-01T06:48:50.291Z,14.33
2018-11-01T06:53:34.212Z,11.90
2018-11-01T06:58:18.072Z,13.37
2018-11-01T07:03:01.959Z,13.53
2018-11-01T07:07:45.915Z,12.67
2018-11-01T07:12:29.589Z,11.27
2018-11-01T07:17:13.451Z,8.87
2018-11-01T07:21:57.203Z,11.37
2018-11-01T07:26:41.271Z,9.03
2018-11-01T07:31:24.986Z,10.57
2018-11-01T07:36:08.703Z,9.77
2018-11-01T07:40:52.433Z,14.93
2018-11-01T07:45:36.259Z,18.87
2018-11-01T07:50:20.433Z,19.30
2018-11-01T07:55:04.153Z,19.00
2018-11-01T07:59:47.851Z,16.70
2018-11-01T08:04:31.611Z,16.83
2018-11-01T08:09:15.544Z,16.97
2018-11-01T08:13:59.313Z,12.90
2018-11-01T08:18:43.038Z,10.33
2018-11-01T08:23:27.086Z,12.87
2018-11-01T08:28:10.959Z,12.07
2018-11-01T08:32:54.609Z,11.80
2018-11-01T08:37:39.357Z,9.63
2018-11-01T08:42:23.115Z,11.37
2018-11-01T08:47:06.990Z,8.20
2018-11-01T08:51:50.863Z,6.83
2018-11-01T08:56:34.530Z,9.00
2018-11-01T09:01:18.349Z,3.57
2018-11-01T09:06:02.227Z,4.70
2018-11-01T09:10:46.934Z,2.20
2018-11-01T09:15:30.650Z,3.47
2018-11-01T09:20:14.308Z,2.53
2018-11-01T09:24:58.263Z,4.20
2018-11-01T09:29:42.949Z,4.60
2018-11-01T09:34:26.807Z,2.83
2018-11-01T09:39:11.672Z,3.13
2018-11-01T09:43:55.512Z,4.03
2018-11-01T09:48:39.862Z,3.50
2018-11-01T09:53:24.048Z,2.47
2018-11-01T09:58:08.152Z,4.77
2018-11-01T10:02:51.957Z,5.80
2018-11-01T10:07:36.842Z,4.87
2018-11-01T10:12:20.599Z,5.00
2018-11-01T10:17:04.868Z,6.73
2018-11-01T10:21:48.551Z,2.33
2018-11-01T10:26:33.072Z,2.83
2018-11-01T10:31:16.894Z,4.73
2018-11-01T10:36:00.815Z,3.83
2018-11-01T10:40:44.608Z,4.67
2018-11-01T10:45:28.419Z,4.43
2018-11-01T10:50:14.877Z,9.53
2018-11-01T10:54:58.935Z,3.57
2018-11-01T10:59:42.811Z,3.83
2018-11-01T11:04:26.582Z,4.07
2018-11-01T11:09:10.507Z,4.13
2018-11-01T11:13:54.323Z,3.23
2018-11-01T11:18:38.075Z,4.30
2018-11-01T11:23:21.969Z,5.03
2018-11-01T11:28:05.692Z,5.00
2018-11-01T11:32:49.759Z,4.57
2018-11-01T11:37:33.557Z,3.33
2018-11-01T11:42:17.385Z,5.67
2018-11-01T11:47:01.182Z,4.97
2018-11-01T11:51:44.854Z,3.60
2018-11-01T11:56:28.542Z,3.97
2018-11-01T12:01:12.300Z,5.23
2018-11-01T12:05:56.103Z,6.13
2018-11-01T12:10:39.911Z,3.97
2018-11-01T12:15:23.610Z,4.33
2018-11-01T12:20:08.954Z,5.27
2018-11-01T12:24:52.700Z,4.40
2018-11-01T12:29:36.470Z,4.37
2018-11-01T12:34:20.303Z,5.20
2018-11-01T12:39:04.754Z,5.93
2018-11-01T12:43:48.652Z,7.13
2018-11-01T12:48:32.427Z,8.93
2018-11-01T12:53:16.194Z,5.50
2018-11-01T12:58:00.054Z,6.03
2018-11-01T13:02:43.906Z,9.30
2018-11-01T13:07:28.523Z,8.03
2018-11-01T13:12:16.691Z,6.30
2018-11-01T13:17:01.241Z,7.27
2018-11-01T13:21:44.975Z,5.47
2018-11-01T13:26:28.790Z,8.37
2018-11-01T13:31:12.514Z,8.10
2018-11-01T13:35:56.190Z,6.10
2018-11-01T13:40:40.399Z,6.90
2018-11-01T13:45:23.883Z,4.57
2018-11-01T13:50:08.658Z,11.83
2018-11-01T13:54:52.427Z,7.83
2018-11-01T13:59:36.276Z,10.30
2018-11-01T14:04:20.064Z,40.80
2018-11-01T14:09:05.255Z,31.83
2018-11-01T14:13:49.197Z,10.73
2018-11-01T14:18:32.787Z,38.03
2018-11-01T14:23:16.522Z,7.00
2018-11-01T14:28:00.204Z,6.63
2018-11-01T14:32:44.126Z,7.77
2018-11-01T14:37:27.948Z,8.03
2018-11-01T14:42:11.595Z,8.27
2018-11-01T14:46:55.278Z,8.17
2018-11-01T14:51:39.060Z,9.07
2018-11-01T14:56:24.251Z,7.03
2018-11-01T15:01:06.621Z,7.90
2018-11-01T15:05:50.707Z,8.07
2018-11-01T15:10:34.456Z,12.50
2018-11-01T15:15:18.155Z,10.37
2018-11-01T15:20:01.946Z,10.83
2018-11-01T15:24:47.131Z,12.60
2018-11-01T15:29:31.129Z,7.67
2018-11-01T15:34:14.959Z,7.67
2018-11-01T15:38:58.731Z,5.00
2018-11-01T15:43:42.960Z,6.07
2018-11-01T15:48:26.720Z,6.27
2018-11-01T15:53:10.343Z,5.37
2018-11-01T15:57:54.129Z,6.47
2018-11-01T16:02:38.939Z,9.73
2018-11-01T16:07:22.696Z,13.00
2018-11-01T16:12:06.571Z,10.57
2018-11-01T16:16:50.432Z,7.53
2018-11-01T16:21:34.318Z,8.90
2018-11-01T16:26:18.199Z,8.87
2018-11-01T16:31:02.680Z,10.40
2018-11-01T16:35:46.612Z,12.57
2018-11-01T16:40:30.425Z,10.13
2018-11-01T16:45:15.584Z,10.97
2018-11-01T16:49:59.403Z,10.33
2018-11-01T16:54:43.332Z,9.87
2018-11-01T16:59:27.063Z,13.57
2018-11-01T17:04:10.918Z,9.33
2018-11-01T17:08:54.884Z,9.50
2018-11-01T17:13:38.734Z,7.50
2018-11-01T17:18:23.213Z,9.87
2018-11-01T17:23:06.993Z,8.97
2018-11-01T17:27:51.284Z,9.57
2018-11-01T17:32:39.295Z,10.57
2018-11-01T17:37:23.287Z,8.93
2018-11-01T17:42:07.072Z,12.47
2018-11-01T17:46:51.019Z,8.77
2018-11-01T17:51:35.153Z,8.50
2018-11-01T17:56:19.110Z,9.50
2018-11-01T18:01:03.156Z,13.40
2018-11-01T18:05:47.339Z,9.87
2018-11-01T18:10:32.116Z,11.97
2018-11-01T18:15:16.072Z,13.90
2018-11-01T18:19:59.888Z,9.60
2018-11-01T18:24:44.004Z,12.77
2018-11-01T18:29:28.013Z,14.20
2018-11-01T18:34:12.118Z,15.97
2018-11-01T18:38:56.114Z,14.20
2018-11-01T18:43:40.391Z,15.73
2018-11-01T18:48:26.120Z,16.67
2018-11-01T18:53:12.462Z,11.23
2018-11-01T18:57:57.508Z,11.93
2018-11-01T19:02:41.608Z,14.07
2018-11-01T19:07:25.797Z,7.60
2018-11-01T19:12:09.808Z,12.70
2018-11-01T19:16:54.157Z,11.83
2018-11-01T19:21:38.939Z,10.57
2018-11-01T19:26:23.138Z,14.07
2018-11-01T19:31:07.195Z,13.87
2018-11-01T19:35:51.717Z,16.33
2018-11-01T19:40:35.817Z,19.00
2018-11-01T19:45:19.628Z,19.03
2018-11-01T19:50:03.831Z,21.20
2018-11-01T19:54:47.663Z,16.33
2018-11-01T19:59:31.439Z,13.17
2018-11-01T20:04:15.555Z,11.73
2018-11-01T20:08:59.314Z,10.13
2018-11-01T20:13:43.019Z,7.20
2018-11-01T20:18:26.812Z,8.80
2018-11-01T20:23:10.606Z,9.73
2018-11-01T20:27:54.669Z,10.40
2018-11-01T20:32:38.339Z,6.63
2018-11-01T20:37:22.107Z,12.40
2018-11-01T20:42:06.029Z,11.53
2018-11-01T20:46:50.011Z,10.10
2018-11-01T20:51:33.857Z,16.00
2018-11-01T20:56:17.577Z,20.60
2018-11-01T21:01:01.458Z,13.00
2018-11-01T21:05:45.263Z,10.50
2018-11-01T21:10:29.125Z,8.63
2018-11-01T21:15:14.207Z,6.67
2018-11-01T21:19:57.939Z,7.90
2018-11-01T21:24:41.758Z,6.70
2018-11-01T21:29:25.508Z,7.73
2018-11-01T21:34:09.125Z,9.67
2018-11-01T21:38:53.051Z,9.97
2018-11-01T21:43:37.087Z,10.33
2018-11-01T21:48:20.765Z,12.97
2018-11-01T21:53:05.900Z,15.03
2018-11-01T21:57:49.708Z,15.80
2018-11-01T22:02:33.433Z,14.13
2018-11-01T22:07:17.264Z,16.13
2018-11-01T22:12:01.309Z,15.37
2018-11-01T22:16:45.043Z,6.80
2018-11-01T22:21:28.945Z,7.27
2018-11-01T22:26:12.690Z,8.10
2018-11-01T22:30:56.467Z,6.70
2018-11-01T22:35:40.190Z,6.17
2018-11-01T22:40:23.881Z,5.63
2018-11-01T22:45:09.201Z,5.03
2018-11-01T22:49:53.087Z,3.43
2018-11-01T22:54:36.883Z,3.87
2018-11-01T22:59:20.556Z,4.53
2018-11-01T23:04:04.310Z,5.03
2018-11-01T23:08:48.239Z,3.60
2018-11-01T23:13:32.005Z,4.00
2018-11-01T23:18:15.800Z,4.20
2018-11-01T23:22:59.625Z,4.87
2018-11-01T23:27:43.497Z,4.33
2018-11-01T23:32:27.344Z,3.73
2018-11-01T23:37:16.239Z,3.97
2018-11-01T23:42:05.372Z,3.60
2018-11-01T23:46:54.435Z,2.67
2018-11-01T23:51:38.242Z,3.03
2018-11-01T23:56:22.341Z,2.10
